createdAt,value
2022-08-14T04:08:30.837Z,25.45
2022-08-14T04:11:02.881Z,32.42
2022-08-14T04:13:41.158Z,27.73
2022-08-14T04:16:19.091Z,35.38
2022-08-14T04:18:51.917Z,21.85
2022-08-14T04:21:24.658Z,31.65
2022-08-14T04:23:57.252Z,18.33
2022-08-14T04:42:01.905Z,31.50
2022-08-14T04:44:36.945Z,34.53
2022-08-14T04:47:25.124Z,25.77
2022-08-14T04:49:56.892Z,24.92
2022-08-14T04:52:27.046Z,22.98
2022-08-14T04:54:56.539Z,28.25
2022-08-14T04:57:26.386Z,25.70
2022-08-14T04:59:58.376Z,23.42
2022-08-14T05:02:29.337Z,25.90
2022-08-14T05:05:04.110Z,20.65
2022-08-14T05:07:54.055Z,27.15
2022-08-14T05:10:25.629Z,22.05
2022-08-14T05:13:13.234Z,20.23
2022-08-14T05:15:45.951Z,25.40
2022-08-14T05:19:16.883Z,19.85
2022-08-14T05:22:00.516Z,20.00
2022-08-14T05:24:00.577Z,17.75
2022-08-14T05:26:29.875Z,18.92
2022-08-14T05:28:59.440Z,25.40
2022-08-14T05:31:39.436Z,18.10
2022-08-14T05:34:10.994Z,20.27
2022-08-14T05:36:41.239Z,20.35
2022-08-14T05:39:10.228Z,18.70
2022-08-14T05:41:53.050Z,26.88
2022-08-14T05:44:26.680Z,19.13
2022-08-14T05:46:59.632Z,28.25
2022-08-14T05:49:33.217Z,19.03
2022-08-14T05:52:03.787Z,17.67
2022-08-14T06:06:54.646Z,18.02
2022-08-14T06:09:27.447Z,17.52
2022-08-14T06:11:59.787Z,14.65
2022-08-14T06:14:30.441Z,13.52
2022-08-14T06:17:00.067Z,12.30
2022-08-14T06:19:29.280Z,17.38
2022-08-14T06:21:59.512Z,17.77
2022-08-14T06:24:30.237Z,11.38
2022-08-14T06:27:06.432Z,18.48
2022-08-14T06:29:40.576Z,18.15
2022-08-14T06:32:38.305Z,16.25
2022-08-14T06:35:04.755Z,20.25
2022-08-14T06:37:52.751Z,15.10
2022-08-14T06:40:28.648Z,13.50
2022-08-14T06:43:03.987Z,27.27
2022-08-14T06:45:34.801Z,14.43
2022-08-14T06:50:42.285Z,15.00
2022-08-14T06:53:15.627Z,12.40
2022-08-14T06:55:58.167Z,15.60
2022-08-14T06:58:31.879Z,12.32
2022-08-14T07:01:26.801Z,16.25
2022-08-14T07:04:23.126Z,14.30
2022-08-14T07:06:59.492Z,17.42
2022-08-14T07:09:40.629Z,16.35
2022-08-14T07:12:56.316Z,12.40
2022-08-14T07:15:09.632Z,14.43
2022-08-14T07:17:52.404Z,13.95
2022-08-14T07:20:31.442Z,20.35
2022-08-14T07:23:09.281Z,17.58
2022-08-14T07:25:51.589Z,18.08
2022-08-14T07:28:26.432Z,15.45
2022-08-14T07:31:05.197Z,12.93
2022-08-14T07:33:41.832Z,12.50
2022-08-14T07:36:27.036Z,16.05
2022-08-14T07:39:12.532Z,14.80
2022-08-14T07:41:42.944Z,19.58
2022-08-14T07:44:29.438Z,21.80
2022-08-14T07:47:03.745Z,18.42
2022-08-14T07:49:35.096Z,14.85
2022-08-14T07:52:05.621Z,20.15
2022-08-14T07:54:37.358Z,15.43
2022-08-14T07:57:12.459Z,17.30
2022-08-14T07:59:51.309Z,16.33
2022-08-14T08:02:21.883Z,19.20
2022-08-14T08:04:59.381Z,24.13
2022-08-14T08:07:31.986Z,20.17
2022-08-14T08:10:46.208Z,22.35
2022-08-14T08:13:24.295Z,20.17
2022-08-14T08:15:57.652Z,24.50
2022-08-14T08:18:30.919Z,17.90
2022-08-14T08:21:00.643Z,19.33
2022-08-14T08:23:40.652Z,20.23
2022-08-14T08:26:12.743Z,19.70
2022-08-14T08:28:43.892Z,16.85
2022-08-14T08:31:13.713Z,18.00
2022-08-14T08:33:49.453Z,15.57
2022-08-14T08:36:19.248Z,18.00
2022-08-14T09:03:44.831Z,14.10
2022-08-14T09:07:01.233Z,22.58
2022-08-14T09:09:05.473Z,12.98
2022-08-14T09:11:34.896Z,18.52
2022-08-14T09:14:05.867Z,21.77
2022-08-14T09:16:35.480Z,18.73
2022-08-14T09:19:05.635Z,17.40
2022-08-14T09:21:36.238Z,18.60
2022-08-14T09:24:26.508Z,15.40
2022-08-14T09:26:56.979Z,28.77
2022-08-14T09:29:28.803Z,16.23
2022-08-14T09:32:02.543Z,20.27
2022-08-14T09:34:58.359Z,15.18
2022-08-14T09:37:40.788Z,16.70
2022-08-14T09:40:29.443Z,16.13
2022-08-14T09:43:33.910Z,17.55
2022-08-14T09:46:10.337Z,19.25
2022-08-14T09:48:40.268Z,19.40
2022-08-14T09:51:25.505Z,24.77
2022-08-14T09:54:22.683Z,17.88
2022-08-14T09:56:57.203Z,21.40
2022-08-14T09:59:32.112Z,19.55
2022-08-14T10:02:04.686Z,14.35
2022-08-14T10:04:38.443Z,19.38
2022-08-14T10:07:12.405Z,19.25
2022-08-14T10:10:00.011Z,20.23
2022-08-14T10:12:54.809Z,17.90
2022-08-14T10:15:27.816Z,17.50
2022-08-14T10:30:44.732Z,14.60
2022-08-14T10:33:28.712Z,17.17
2022-08-14T10:36:00.388Z,16.48
2022-08-14T10:38:34.911Z,18.88
2022-08-14T10:41:14.656Z,21.35
2022-08-14T10:43:46.991Z,24.90
2022-08-14T10:47:36.587Z,12.63
2022-08-14T10:49:17.887Z,17.50
2022-08-14T10:51:57.562Z,24.13
2022-08-14T10:54:42.675Z,13.30
2022-08-14T10:57:36.778Z,15.95
2022-08-14T11:00:20.568Z,13.98
2022-08-14T11:03:26.848Z,16.67
2022-08-14T11:06:17.788Z,14.15
2022-08-14T11:08:48.430Z,20.83
2022-08-14T11:11:21.830Z,16.15
2022-08-14T11:13:51.851Z,17.43
2022-08-14T11:16:21.578Z,18.70
2022-08-14T12:14:29.260Z,18.77
2022-08-14T12:17:12.576Z,21.85
2022-08-14T12:20:03.416Z,30.45
2022-08-14T12:22:42.430Z,18.70
2022-08-14T12:25:20.917Z,15.88
2022-08-14T12:28:01.195Z,16.30
2022-08-14T12:30:39.718Z,23.17
2022-08-14T12:33:32.983Z,15.05
2022-08-14T12:36:06.341Z,17.60
2022-08-14T12:38:44.381Z,22.75
2022-08-14T12:41:21.333Z,15.73
2022-08-14T12:43:52.615Z,16.55
2022-08-14T12:46:32.779Z,25.43
2022-08-14T13:50:57.087Z,37.10
2022-08-14T13:53:33.155Z,42.08
2022-08-14T13:56:04.657Z,56.17
2022-08-14T13:58:37.795Z,115.95
2022-08-14T14:01:09.098Z,104.07
2022-08-14T14:03:40.763Z,51.10
2022-08-14T14:06:10.641Z,43.78
2022-08-14T14:08:48.303Z,52.53
2022-08-14T14:11:26.486Z,40.55
2022-08-14T14:14:06.019Z,41.17
2022-08-14T14:16:41.876Z,35.70
2022-08-14T14:19:11.327Z,36.55
2022-08-14T14:21:42.112Z,35.17
2022-08-14T14:24:15.474Z,30.83
2022-08-14T14:26:51.282Z,39.30
2022-08-14T14:29:24.263Z,37.95
2022-08-14T14:31:58.524Z,55.10
2022-08-14T14:34:30.811Z,40.38
2022-08-14T14:37:04.778Z,94.97
2022-08-14T14:40:50.163Z,60.78
2022-08-14T14:42:32.179Z,38.00
2022-08-14T14:45:17.010Z,42.28
2022-08-14T14:47:50.071Z,46.50
2022-08-14T14:50:29.327Z,38.72
2022-08-14T14:53:12.388Z,35.97
2022-08-14T14:56:47.948Z,40.65
2022-08-14T14:58:37.052Z,43.63
2022-08-14T15:01:08.681Z,45.13
2022-08-14T15:03:42.720Z,50.25
2022-08-14T15:06:13.051Z,48.13
2022-08-14T15:08:56.744Z,41.42
2022-08-14T15:11:31.980Z,36.70
2022-08-14T15:14:02.222Z,35.20
2022-08-14T15:16:51.790Z,34.85
2022-08-14T15:19:24.329Z,34.00
2022-08-14T15:21:53.492Z,34.40
2022-08-14T15:24:24.395Z,30.80
2022-08-14T15:27:01.507Z,27.27
2022-08-14T15:29:32.099Z,24.65
2022-08-14T15:32:01.848Z,34.92
2022-08-14T15:34:45.808Z,30.77
2022-08-14T15:37:23.383Z,51.10
2022-08-14T15:42:24.653Z,41.72
2022-08-14T15:44:59.504Z,40.42
2022-08-14T15:47:33.655Z,34.30
2022-08-14T15:50:09.741Z,44.33
2022-08-14T15:52:39.345Z,35.55
2022-08-14T15:55:14.890Z,38.78
2022-08-14T15:58:02.232Z,57.25
2022-08-14T16:00:54.927Z,38.80
2022-08-14T16:03:35.195Z,40.38
2022-08-14T16:06:15.670Z,35.13
2022-08-14T16:08:59.013Z,45.45
2022-08-14T16:11:33.290Z,41.77
2022-08-14T16:14:06.716Z,36.78
2022-08-14T16:16:51.394Z,46.90
2022-08-14T16:19:29.753Z,38.13
2022-08-14T16:22:59.525Z,42.08
2022-08-14T16:24:57.820Z,46.30
2022-08-14T16:27:40.907Z,41.97
2022-08-14T16:30:25.317Z,48.00
2022-08-14T16:33:02.715Z,38.88
2022-08-14T16:35:42.765Z,39.30
2022-08-14T16:38:45.716Z,46.03
2022-08-14T16:41:23.268Z,42.47
2022-08-14T16:44:06.283Z,36.45
2022-08-14T16:46:57.270Z,41.83
2022-08-14T16:50:03.538Z,34.65
2022-08-14T16:52:25.626Z,42.05
2022-08-14T16:57:58.599Z,38.65
2022-08-14T17:00:45.314Z,39.85
2022-08-14T17:03:15.865Z,38.60
2022-08-14T17:05:46.942Z,40.15
2022-08-14T17:08:41.353Z,39.83
2022-08-14T17:11:12.913Z,40.50
2022-08-14T17:13:58.829Z,34.88
2022-08-14T17:16:38.459Z,40.47
2022-08-14T17:19:13.358Z,36.95
2022-08-14T17:21:47.487Z,30.70
2022-08-14T17:24:56.206Z,32.50
2022-08-14T17:27:11.505Z,40.55
2022-08-14T17:32:56.749Z,35.95
2022-08-14T17:35:57.439Z,37.30
2022-08-14T17:38:38.865Z,42.35
2022-08-14T17:41:23.173Z,43.55
2022-08-14T17:43:54.900Z,43.38
2022-08-14T17:49:17.963Z,52.53
2022-08-14T17:52:17.691Z,51.70
2022-08-14T17:54:52.595Z,46.38
2022-08-14T17:57:35.443Z,48.20
2022-08-14T18:00:18.643Z,42.03
2022-08-14T18:06:07.603Z,37.72
2022-08-14T18:08:34.298Z,35.63
2022-08-14T18:11:04.606Z,38.78
2022-08-14T18:13:50.961Z,39.03
2022-08-14T18:16:22.997Z,37.58
2022-08-14T18:18:53.096Z,40.22
2022-08-14T18:21:56.198Z,35.80
2022-08-14T18:24:20.114Z,35.22
2022-08-14T18:27:23.246Z,33.47
2022-08-14T18:29:56.571Z,33.95
2022-08-14T18:32:33.386Z,34.65
2022-08-14T18:35:13.222Z,37.05
2022-08-14T18:37:55.929Z,38.35
2022-08-14T18:40:34.927Z,35.65
2022-08-14T18:43:08.117Z,39.88
2022-08-14T18:48:21.152Z,59.50
2022-08-14T18:51:03.333Z,39.50
2022-08-14T18:53:59.625Z,48.17
2022-08-14T18:56:59.220Z,38.42
2022-08-14T18:59:45.943Z,29.17
2022-08-14T19:02:31.196Z,46.13
2022-08-14T19:07:33.320Z,57.25
2022-08-14T19:10:16.773Z,18.98
2022-08-14T19:13:01.436Z,21.52
2022-08-14T19:15:37.866Z,12.95
2022-08-14T19:18:31.460Z,14.85
2022-08-14T19:21:25.150Z,13.13
2022-08-14T19:24:44.235Z,12.52
2022-08-14T19:27:26.211Z,12.82
2022-08-14T19:30:19.791Z,12.43
2022-08-14T19:32:55.885Z,18.65
2022-08-14T19:35:49.501Z,17.75
2022-08-14T19:38:45.830Z,21.95
2022-08-14T19:41:17.214Z,20.00
2022-08-14T19:43:56.244Z,20.50
2022-08-14T19:46:38.069Z,23.58
2022-08-14T19:50:08.059Z,24.60
2022-08-14T19:52:22.711Z,30.95
2022-08-14T19:54:53.319Z,23.48
2022-08-14T19:57:29.018Z,25.33
2022-08-14T20:00:29.491Z,24.30
2022-08-14T20:03:14.248Z,25.10
2022-08-14T20:05:49.149Z,20.48
2022-08-14T20:10:59.613Z,20.35
2022-08-14T20:11:58.612Z,18.15
2022-08-14T20:14:29.623Z,23.75
2022-08-14T20:17:06.160Z,19.02
2022-08-14T20:19:41.767Z,17.27
2022-08-14T20:22:36.465Z,17.80
2022-08-14T20:25:24.328Z,15.13
2022-08-14T20:27:59.598Z,16.02
2022-08-14T20:30:33.726Z,12.52
2022-08-14T20:33:11.654Z,14.55
2022-08-14T20:35:42.787Z,15.30
2022-08-14T20:38:31.031Z,14.70
2022-08-14T20:41:09.479Z,12.93
2022-08-14T20:44:00.827Z,12.45
2022-08-14T20:46:38.820Z,10.25
2022-08-14T20:49:10.370Z,9.70
2022-08-14T20:51:58.896Z,9.90
2022-08-14T20:54:36.376Z,7.95
2022-08-14T20:57:18.950Z,8.05
2022-08-14T20:59:57.626Z,9.50
2022-08-14T21:02:46.419Z,11.60
2022-08-14T21:05:33.313Z,12.15
2022-08-14T21:08:05.624Z,8.02
2022-08-14T21:10:43.827Z,10.30
2022-08-14T21:14:09.180Z,7.75
2022-08-14T21:16:34.761Z,6.35
2022-08-14T21:19:01.977Z,7.07
2022-08-14T21:21:40.455Z,5.60
2022-08-14T21:24:40.129Z,8.68
2022-08-14T21:27:12.629Z,7.70
2022-08-14T21:29:54.298Z,9.35
2022-08-14T21:32:35.796Z,5.43
2022-08-14T21:35:09.924Z,6.22
2022-08-14T21:37:48.155Z,5.43
2022-08-14T21:40:42.507Z,6.57
2022-08-14T21:43:18.184Z,7.03
2022-08-14T21:45:58.774Z,5.88
2022-08-14T21:48:34.023Z,6.80
2022-08-14T21:51:53.238Z,10.52
2022-08-14T21:54:01.358Z,10.68
2022-08-14T21:56:39.672Z,12.32
2022-08-14T21:59:28.965Z,9.93
2022-08-14T22:02:03.464Z,10.93
2022-08-14T22:04:41.524Z,10.80
2022-08-14T22:07:18.111Z,10.93
2022-08-14T22:09:54.833Z,13.70
2022-08-14T22:12:58.438Z,14.50
2022-08-14T22:15:19.287Z,8.93
2022-08-14T22:17:54.248Z,10.30
2022-08-14T22:20:29.290Z,9.18
2022-08-14T22:23:06.779Z,6.85
2022-08-14T22:25:41.043Z,9.02
2022-08-14T22:28:16.840Z,9.75
2022-08-14T22:30:48.323Z,9.48
2022-08-14T22:33:31.567Z,11.57
2022-08-14T22:36:25.378Z,12.27
2022-08-14T22:38:56.481Z,12.95
2022-08-14T22:41:32.692Z,11.18
2022-08-14T22:44:10.965Z,12.75
2022-08-14T22:46:43.338Z,12.77
2022-08-14T22:49:15.537Z,11.60
2022-08-14T22:51:56.674Z,12.20
2022-08-14T22:54:52.058Z,12.75
2022-08-14T22:57:17.271Z,13.80
2022-08-14T22:59:47.490Z,12.40
2022-08-14T23:02:30.211Z,10.55
2022-08-14T23:05:04.862Z,8.80
2022-08-14T23:08:58.527Z,6.45
2022-08-14T23:10:32.543Z,7.03
2022-08-14T23:13:05.826Z,7.60
2022-08-14T23:15:37.731Z,5.65
2022-08-14T23:18:07.533Z,5.93
2022-08-14T23:20:44.377Z,5.10
2022-08-14T23:23:22.911Z,6.35
2022-08-14T23:25:59.024Z,4.40
2022-08-14T23:28:34.964Z,6.15
2022-08-14T23:31:35.016Z,4.93
2022-08-14T23:34:08.217Z,4.55
2022-08-14T23:36:53.015Z,5.60
2022-08-14T23:39:34.552Z,4.70
2022-08-14T23:42:10.125Z,5.60
2022-08-14T23:44:45.883Z,5.07
2022-08-14T23:47:26.055Z,5.25
2022-08-14T23:50:03.303Z,37.15
2022-08-14T23:52:55.742Z,20.73
2022-08-14T23:55:33.986Z,8.98
2022-08-14T23:58:03.707Z,13.25
